sensor_id;sensor_type;location;lat;lon;timestamp;temperature;humidity
73875;HTU21D;62209;47.568;7.558;2024-03-08T00:06:52;3.94;102.99
73875;HTU21D;62209;47.568;7.558;2024-03-08T00:21:58;3.88;103.34
73875;HTU21D;62209;47.568;7.558;2024-03-08T00:37:03;3.77;103.55
73875;HTU21D;62209;47.568;7.558;2024-03-08T00:52:09;3.67;103.73
73875;HTU21D;62209;47.568;7.558;2024-03-08T01:07:15;3.67;104.03
73875;HTU21D;62209;47.568;7.558;2024-03-08T01:22:20;3.67;104.30
73875;HTU21D;62209;47.568;7.558;2024-03-08T01:37:26;3.68;104.30
73875;HTU21D;62209;47.568;7.558;2024-03-08T01:52:32;3.64;104.44
73875;HTU21D;62209;47.568;7.558;2024-03-08T02:07:41;3.71;104.26
73875;HTU21D;62209;47.568;7.558;2024-03-08T02:22:48;3.44;104.07
73875;HTU21D;62209;47.568;7.558;2024-03-08T02:37:54;3.54;104.53
73875;HTU21D;62209;47.568;7.558;2024-03-08T02:52:59;3.40;104.21
73875;HTU21D;62209;47.568;7.558;2024-03-08T03:08:05;2.09;105.28
73875;HTU21D;62209;47.568;7.558;2024-03-08T03:23:13;1.26;107.01
73875;HTU21D;62209;47.568;7.558;2024-03-08T03:38:24;1.12;105.23
73875;HTU21D;62209;47.568;7.558;2024-03-08T03:53:31;0.79;104.86
73875;HTU21D;62209;47.568;7.558;2024-03-08T04:08:36;0.46;106.98
73875;HTU21D;62209;47.568;7.558;2024-03-08T04:23:42;2.15;106.56
73875;HTU21D;62209;47.568;7.558;2024-03-08T04:38:48;3.01;105.52
73875;HTU21D;62209;47.568;7.558;2024-03-08T04:53:54;3.41;103.92
73875;HTU21D;62209;47.568;7.558;2024-03-08T05:09:00;3.73;103.20
73875;HTU21D;62209;47.568;7.558;2024-03-08T05:24:17;3.77;103.57
73875;HTU21D;62209;47.568;7.558;2024-03-08T05:39:23;3.84;103.31
73875;HTU21D;62209;47.568;7.558;2024-03-08T05:54:28;3.92;102.64
73875;HTU21D;62209;47.568;7.558;2024-03-08T06:09:36;4.05;102.26
73875;HTU21D;62209;47.568;7.558;2024-03-08T06:24:41;4.13;101.80
73875;HTU21D;62209;47.568;7.558;2024-03-08T06:39:47;4.23;101.31
73875;HTU21D;62209;47.568;7.558;2024-03-08T06:54:54;4.34;100.32
73875;HTU21D;62209;47.568;7.558;2024-03-08T07:10:00;4.43;99.77
73875;HTU21D;62209;47.568;7.558;2024-03-08T07:25:06;4.50;98.93
73875;HTU21D;62209;47.568;7.558;2024-03-08T07:40:23;4.56;98.52
73875;HTU21D;62209;47.568;7.558;2024-03-08T07:55:29;4.90;98.28
73875;HTU21D;62209;47.568;7.558;2024-03-08T08:10:34;5.05;97.68
73875;HTU21D;62209;47.568;7.558;2024-03-08T08:25:40;5.30;96.67
73875;HTU21D;62209;47.568;7.558;2024-03-08T08:40:46;5.89;95.82
73875;HTU21D;62209;47.568;7.558;2024-03-08T08:55:51;5.80;95.39
73875;HTU21D;62209;47.568;7.558;2024-03-08T09:10:57;6.52;93.99
73875;HTU21D;62209;47.568;7.558;2024-03-08T09:26:04;8.17;91.54
73875;HTU21D;62209;47.568;7.558;2024-03-08T09:41:25;7.42;90.22
73875;HTU21D;62209;47.568;7.558;2024-03-08T09:56:31;10.42;83.49
73875;HTU21D;62209;47.568;7.558;2024-03-08T10:11:37;11.74;82.48
73875;HTU21D;62209;47.568;7.558;2024-03-08T10:26:44;11.08;82.06
73875;HTU21D;62209;47.568;7.558;2024-03-08T10:41:53;12.13;82.32
73875;HTU21D;62209;47.568;7.558;2024-03-08T10:57:03;12.21;80.20
73875;HTU21D;62209;47.568;7.558;2024-03-08T11:12:21;11.97;79.06
73875;HTU21D;62209;47.568;7.558;2024-03-08T11:27:32;11.88;80.43
73875;HTU21D;62209;47.568;7.558;2024-03-08T11:42:37;13.80;79.91
73875;HTU21D;62209;47.568;7.558;2024-03-08T11:57:44;14.03;79.27
73875;HTU21D;62209;47.568;7.558;2024-03-08T12:12:51;13.30;80.11
73875;HTU21D;62209;47.568;7.558;2024-03-08T12:28:06;13.73;77.60
73875;HTU21D;62209;47.568;7.558;2024-03-08T12:43:16;13.92;78.58
73875;HTU21D;62209;47.568;7.558;2024-03-08T12:58:22;12.45;80.56
73875;HTU21D;62209;47.568;7.558;2024-03-08T13:13:27;13.76;77.84
73875;HTU21D;62209;47.568;7.558;2024-03-08T13:28:33;13.53;78.27
73875;HTU21D;62209;47.568;7.558;2024-03-08T13:43:41;14.55;79.63
73875;HTU21D;62209;47.568;7.558;2024-03-08T13:58:47;14.50;78.24
73875;HTU21D;62209;47.568;7.558;2024-03-08T14:13:55;14.32;78.26
73875;HTU21D;62209;47.568;7.558;2024-03-08T14:29:01;12.76;80.52
73875;HTU21D;62209;47.568;7.558;2024-03-08T14:44:08;13.83;77.59
73875;HTU21D;62209;47.568;7.558;2024-03-08T14:59:14;12.62;81.03
73875;HTU21D;62209;47.568;7.558;2024-03-08T15:14:20;12.51;80.46
73875;HTU21D;62209;47.568;7.558;2024-03-08T15:29:28;12.74;78.30
73875;HTU21D;62209;47.568;7.558;2024-03-08T15:44:35;12.17;78.08
73875;HTU21D;62209;47.568;7.558;2024-03-08T15:59:42;11.27;80.59
73875;HTU21D;62209;47.568;7.558;2024-03-08T16:14:48;10.40;83.26
73875;HTU21D;62209;47.568;7.558;2024-03-08T16:29:54;10.04;85.71
73875;HTU21D;62209;47.568;7.558;2024-03-08T16:45:00;9.66;87.08
73875;HTU21D;62209;47.568;7.558;2024-03-08T17:00:06;9.42;88.11
73875;HTU21D;62209;47.568;7.558;2024-03-08T17:15:17;8.98;88.89
73875;HTU21D;62209;47.568;7.558;2024-03-08T17:30:27;8.82;89.29
73875;HTU21D;62209;47.568;7.558;2024-03-08T17:45:33;8.73;89.53
73875;HTU21D;62209;47.568;7.558;2024-03-08T18:00:39;8.59;89.57
73875;HTU21D;62209;47.568;7.558;2024-03-08T18:15:47;8.53;89.86
73875;HTU21D;62209;47.568;7.558;2024-03-08T18:30:52;8.38;90.49
73875;HTU21D;62209;47.568;7.558;2024-03-08T18:45:58;8.22;91.34
73875;HTU21D;62209;47.568;7.558;2024-03-08T19:01:04;8.15;91.85
73875;HTU21D;62209;47.568;7.558;2024-03-08T19:16:10;8.12;91.98
73875;HTU21D;62209;47.568;7.558;2024-03-08T19:31:19;8.02;92.14
73875;HTU21D;62209;47.568;7.558;2024-03-08T19:46:24;7.97;92.50
73875;HTU21D;62209;47.568;7.558;2024-03-08T20:01:30;7.98;92.53
73875;HTU21D;62209;47.568;7.558;2024-03-08T20:16:36;7.99;92.69
73875;HTU21D;62209;47.568;7.558;2024-03-08T20:31:41;7.64;94.71
73875;HTU21D;62209;47.568;7.558;2024-03-08T20:46:47;7.68;94.20
73875;HTU21D;62209;47.568;7.558;2024-03-08T21:01:54;7.56;94.58
73875;HTU21D;62209;47.568;7.558;2024-03-08T21:16:59;7.62;94.17
73875;HTU21D;62209;47.568;7.558;2024-03-08T21:32:05;7.62;93.98
73875;HTU21D;62209;47.568;7.558;2024-03-08T21:47:11;7.58;95.63
73875;HTU21D;62209;47.568;7.558;2024-03-08T22:02:17;7.34;96.31
73875;HTU21D;62209;47.568;7.558;2024-03-08T22:17:24;6.93;99.03
73875;HTU21D;62209;47.568;7.558;2024-03-08T22:32:29;7.00;98.56
73875;HTU21D;62209;47.568;7.558;2024-03-08T22:47:35;6.84;98.31
73875;HTU21D;62209;47.568;7.558;2024-03-08T23:02:41;6.88;99.02
73875;HTU21D;62209;47.568;7.558;2024-03-08T23:17:47;6.79;98.89
73875;HTU21D;62209;47.568;7.558;2024-03-08T23:32:54;6.79;98.26
73875;HTU21D;62209;47.568;7.558;2024-03-08T23:48:01;6.74;98.84
